Private Wetterstation Wechselburg
Wetterdaten: Donnerstag, 02.02.2017
Datum Zeit Temp. +2m Bodentemp. Temp.+5cm Temp. Wind Windchill X Diff Temp. Feuchte +2m Feuchte +5cm Sonnenschein Luftdruck Regen Wind Richtung Richtung Sonnenschein Taupunkt Windchill Windben
02.02.2017 00:00 -4,9 C 1,0 C -3,9 C -4,9 C -5,0 C 0,0 C 87 % 84 % 0 % 1018,8 hPa 0,0 l/m 0,0 km/h (0 Bft) O-NO 67 0 min -6,7 C -5,0 C 0,0 km/h (0 Bft)
02.02.2017 00:05 -4,9 C 1,0 C -4,1 C -4,9 C -5,0 C 0,0 C 87 % 84 % 0 % 1018,8 hPa 0,0 l/m 0,0 km/h (0 Bft) O-NO 67 0 min -6,7 C -5,0 C 0,0 km/h (0 Bft)
02.02.2017 00:10 -4,9 C 1,0 C -4,1 C -4,9 C -5,0 C 0,0 C 87 % 84 % 0 % 1018,8 hPa 0,0 l/m 0,0 km/h (0 Bft) O-NO 67 0 min -6,7 C -5,0 C 0,0 km/h (0 Bft)
02.02.2017 00:15 -5,1 C 1,0 C -4,1 C -5,1 C -5,1 C 0,0 C 87 % 84 % 0 % 1018,8 hPa 0,0 l/m 0,0 km/h (0 Bft) N-NO 22 0 min -6,9 C -5,1 C 0,0 km/h (0 Bft)
02.02.2017 00:20 -5,2 C 1,0 C -4,1 C -5,2 C -5,2 C 0,0 C 87 % 84 % 0 % 1019,6 hPa 0,0 l/m 0,0 km/h (0 Bft) N-NO 22 0 min -7,0 C -5,2 C 0,0 km/h (0 Bft)
02.02.2017 00:25 -5,3 C 1,0 C -4,1 C -5,4 C -5,5 C 0,0 C 87 % 84 % 0 % 1019,6 hPa 0,0 l/m 0,0 km/h (0 Bft) N-NO 22 0 min -7,1 C -5,5 C 0,0 km/h (0 Bft)
02.02.2017 00:30 -5,3 C 1,0 C -4,2 C -5,4 C -5,6 C 0,0 C 87 % 84 % 0 % 1019,6 hPa 0,0 l/m 0,0 km/h (0 Bft) N-NO 22 0 min -7,1 C -5,6 C 0,0 km/h (0 Bft)
02.02.2017 00:35 -5,4 C 1,0 C -4,1 C -5,5 C -5,7 C 0,0 C 87 % 85 % 0 % 1019,6 hPa 0,0 l/m 0,0 km/h (0 Bft) N-NO 22 0 min -7,2 C -5,7 C 0,0 km/h (0 Bft)
02.02.2017 00:40 -5,5 C 1,0 C -4,3 C -5,6 C -5,8 C 0,0 C 87 % 85 % 0 % 1019,2 hPa 0,0 l/m 0,0 km/h (0 Bft) N-NO 22 0 min -7,3 C -5,8 C 0,0 km/h (0 Bft)
02.02.2017 00:45 -5,5 C 1,0 C -4,4 C -5,6 C -5,7 C 0,0 C 87 % 85 % 0 % 1019,2 hPa 0,0 l/m 0,0 km/h (0 Bft) N-NO 22 0 min -7,3 C -5,7 C 0,0 km/h (0 Bft)
02.02.2017 00:50 -5,5 C 1,0 C -4,5 C -5,5 C -5,5 C 0,0 C 87 % 85 % 0 % 1019,2 hPa 0,0 l/m 0,0 km/h (0 Bft) O-NO 67 0 min -7,3 C -5,5 C 0,0 km/h (0 Bft)
02.02.2017 00:55 -5,5 C 1,0 C -4,3 C -5,3 C -5,3 C 0,2 C 87 % 85 % 0 % 1019,2 hPa 0,0 l/m 0,0 km/h (0 Bft) O-NO 67 0 min -7,3 C -5,3 C 0,0 km/h (0 Bft)
02.02.2017 01:00 -5,5 C 1,0 C -4,3 C -5,3 C -5,3 C 0,2 C 87 % 85 % 0 % 1018,5 hPa 0,0 l/m 0,0 km/h (0 Bft) SW 225 0 min -7,3 C -5,3 C 0,0 km/h (0 Bft)
02.02.2017 01:05 -5,5 C 1,0 C -4,4 C -5,4 C -5,4 C 0,1 C 87 % 85 % 0 % 1018,5 hPa 0,0 l/m 0,0 km/h (0 Bft) O-NO 67 0 min -7,3 C -5,4 C 0,0 km/h (0 Bft)
02.02.2017 01:10 -5,5 C 1,0 C -4,5 C -5,3 C -5,3 C 0,2 C 87 % 85 % 0 % 1018,5 hPa 0,0 l/m 0,6 km/h (0 Bft) O-NO 67 0 min -7,3 C -5,3 C 2,3 km/h (1 Bft)
02.02.2017 01:15 -5,6 C 0,9 C -4,5 C -5,2 C -5,2 C 0,4 C 87 % 86 % 0 % 1018,5 hPa 0,0 l/m 1,3 km/h (1 Bft) O-NO 67 0 min -7,4 C -5,2 C 0,0 km/h (0 Bft)
02.02.2017 01:20 -5,6 C 1,0 C -4,5 C -5,2 C -5,2 C 0,4 C 87 % 86 % 0 % 1018,5 hPa 0,0 l/m 1,0 km/h (0 Bft) O-NO 67 0 min -7,4 C -5,2 C 0,0 km/h (0 Bft)
02.02.2017 01:25 -5,7 C 0,9 C -4,7 C -5,4 C -5,4 C 0,3 C 87 % 86 % 0 % 1018,5 hPa 0,0 l/m 0,0 km/h (0 Bft) O-NO 67 0 min -7,5 C -5,4 C 0,0 km/h (0 Bft)
02.02.2017 01:30 -5,7 C 1,0 C -4,7 C -5,5 C -5,5 C 0,2 C 87 % 86 % 0 % 1018,5 hPa 0,0 l/m 0,0 km/h (0 Bft) O-NO 67 0 min -7,5 C -5,5 C 0,0 km/h (0 Bft)
02.02.2017 01:35 -5,7 C 0,9 C -4,7 C -5,6 C -5,6 C 0,1 C 87 % 86 % 0 % 1018,5 hPa 0,0 l/m 0,0 km/h (0 Bft) N-NO 22 0 min -7,5 C -5,6 C 0,0 km/h (0 Bft)
02.02.2017 01:40 -5,7 C 1,0 C -4,8 C -5,7 C -5,7 C 0,0 C 87 % 86 % 0 % 1017,9 hPa 0,0 l/m 0,0 km/h (0 Bft) W-NW 292 0 min -7,5 C -5,7 C 0,0 km/h (0 Bft)
02.02.2017 01:45 -5,9 C 0,9 C -4,8 C -5,8 C -5,8 C 0,1 C 87 % 86 % 0 % 1017,9 hPa 0,0 l/m 0,0 km/h (0 Bft) NW 315 0 min -7,7 C -5,8 C 0,0 km/h (0 Bft)
02.02.2017 01:50 -5,9 C 0,9 C -4,8 C -5,8 C -5,8 C 0,1 C 87 % 86 % 0 % 1017,9 hPa 0,0 l/m 0,0 km/h (0 Bft) NW 315 0 min -7,7 C -5,8 C 0,0 km/h (0 Bft)
02.02.2017 01:55 -5,9 C 0,9 C -4,8 C -5,9 C -5,9 C 0,0 C 87 % 86 % 0 % 1017,9 hPa 0,0 l/m 0,0 km/h (0 Bft) NW 315 0 min -7,7 C -5,9 C 0,0 km/h (0 Bft)
02.02.2017 02:00 -5,9 C 0,9 C -4,9 C -5,7 C -5,7 C 0,2 C 87 % 87 % 0 % 1018,0 hPa 0,0 l/m 0,8 km/h (0 Bft) O-NO 67 0 min -7,7 C -5,7 C 2,6 km/h (1 Bft)
02.02.2017 02:05 -6,0 C 0,9 C -4,9 C -5,6 C -5,6 C 0,4 C 87 % 87 % 0 % 1018,0 hPa 0,0 l/m 1,3 km/h (1 Bft) N-NO 22 0 min -7,8 C -5,6 C 3,2 km/h (1 Bft)
02.02.2017 02:10 -6,0 C 0,9 C -4,9 C -5,8 C -5,8 C 0,2 C 87 % 87 % 0 % 1018,0 hPa 0,0 l/m 0,8 km/h (0 Bft) N-NO 22 0 min -7,8 C -5,8 C 0,0 km/h (0 Bft)
02.02.2017 02:15 -5,9 C 0,9 C -4,9 C -5,9 C -5,9 C 0,0 C 88 % 87 % 0 % 1018,0 hPa 0,0 l/m 0,0 km/h (0 Bft) N-NO 22 0 min -7,6 C -5,9 C 0,0 km/h (0 Bft)
02.02.2017 02:20 -6,1 C 0,9 C -4,9 C -6,0 C -6,0 C 0,1 C 87 % 87 % 0 % 1017,9 hPa 0,0 l/m 0,0 km/h (0 Bft) NO 45 0 min -7,9 C -6,0 C 0,0 km/h (0 Bft)
02.02.2017 02:25 -6,1 C 0,9 C -4,9 C -6,1 C -6,1 C 0,0 C 87 % 87 % 0 % 1017,9 hPa 0,0 l/m 0,0 km/h (0 Bft) O-NO 67 0 min -7,9 C -6,1 C 0,0 km/h (0 Bft)
02.02.2017 02:30 -6,1 C 0,9 C -5,0 C -6,1 C -6,1 C 0,0 C 87 % 87 % 0 % 1017,9 hPa 0,0 l/m 0,0 km/h (0 Bft) O-NO 67 0 min -7,9 C -6,1 C 0,0 km/h (0 Bft)
02.02.2017 02:35 -6,2 C 0,9 C -4,9 C -6,2 C -6,2 C 0,0 C 87 % 87 % 0 % 1017,9 hPa 0,0 l/m 0,2 km/h (0 Bft) W-NW 292 0 min -8,0 C -6,2 C 0,0 km/h (0 Bft)
02.02.2017 02:40 -6,1 C 0,9 C -4,9 C -6,1 C -6,2 C 0,0 C 87 % 87 % 0 % 1017,6 hPa 0,0 l/m 0,2 km/h (0 Bft) W-NW 292 0 min -7,9 C -6,2 C 0,0 km/h (0 Bft)
02.02.2017 02:45 -6,3 C 0,9 C -5,0 C -6,3 C -6,4 C 0,0 C 87 % 87 % 0 % 1017,6 hPa 0,0 l/m 0,0 km/h (0 Bft) W-NW 292 0 min -8,1 C -6,4 C 0,0 km/h (0 Bft)
02.02.2017 02:50 -6,4 C 0,9 C -4,9 C -6,4 C -6,4 C 0,0 C 87 % 87 % 0 % 1017,6 hPa 0,0 l/m 0,0 km/h (0 Bft) W-NW 292 0 min -8,2 C -6,4 C 0,0 km/h (0 Bft)
02.02.2017 02:55 -6,4 C 0,9 C -5,1 C -6,4 C -6,4 C 0,0 C 88 % 87 % 0 % 1017,6 hPa 0,0 l/m 0,0 km/h (0 Bft) W-NW 292 0 min -8,1 C -6,4 C 0,0 km/h (0 Bft)
02.02.2017 03:00 -6,4 C 0,9 C -5,1 C -6,4 C -6,4 C 0,0 C 87 % 87 % 0 % 1018,2 hPa 0,0 l/m 0,0 km/h (0 Bft) W-NW 292 0 min -8,2 C -6,4 C 0,0 km/h (0 Bft)
02.02.2017 03:05 -6,5 C 0,9 C -5,1 C -6,4 C -6,4 C 0,1 C 88 % 87 % 0 % 1018,2 hPa 0,0 l/m 0,0 km/h (0 Bft) W-NW 292 0 min -8,1 C -6,4 C 0,0 km/h (0 Bft)
02.02.2017 03:10 -6,5 C 0,9 C -5,2 C -6,5 C -6,5 C 0,0 C 87 % 87 % 0 % 1018,2 hPa 0,0 l/m 0,0 km/h (0 Bft) W-NW 292 0 min -8,3 C -6,5 C 0,0 km/h (0 Bft)
02.02.2017 03:15 -6,5 C 0,9 C -5,2 C -6,5 C -6,5 C 0,0 C 88 % 87 % 0 % 1018,2 hPa 0,0 l/m 0,0 km/h (0 Bft) W-NW 292 0 min -8,1 C -6,5 C 0,0 km/h (0 Bft)
02.02.2017 03:20 -6,5 C 0,9 C -5,1 C -6,5 C -6,5 C 0,0 C 87 % 87 % 0 % 1017,1 hPa 0,0 l/m 0,0 km/h (0 Bft) W-NW 292 0 min -8,3 C -6,5 C 0,0 km/h (0 Bft)
02.02.2017 03:25 -6,6 C 0,9 C -5,2 C -6,5 C -6,5 C 0,1 C 88 % 87 % 0 % 1017,1 hPa 0,0 l/m 0,0 km/h (0 Bft) W-NW 292 0 min -8,2 C -6,5 C 0,0 km/h (0 Bft)
02.02.2017 03:30 -6,5 C 0,8 C -5,2 C -6,5 C -6,5 C 0,0 C 88 % 87 % 0 % 1017,1 hPa 0,0 l/m 0,0 km/h (0 Bft) W-NW 292 0 min -8,1 C -6,5 C 0,0 km/h (0 Bft)
02.02.2017 03:35 -6,6 C 0,8 C -5,3 C -6,4 C -6,4 C 0,2 C 88 % 87 % 0 % 1017,1 hPa 0,0 l/m 0,0 km/h (0 Bft) W-NW 292 0 min -8,2 C -6,4 C 0,0 km/h (0 Bft)
02.02.2017 03:40 -6,5 C 0,9 C -5,3 C -6,4 C -6,4 C 0,1 C 88 % 87 % 0 % 1016,8 hPa 0,0 l/m 0,0 km/h (0 Bft) W-NW 292 0 min -8,1 C -6,4 C 0,0 km/h (0 Bft)
02.02.2017 03:45 -6,7 C 0,9 C -5,2 C -6,5 C -6,5 C 0,2 C 88 % 87 % 0 % 1016,8 hPa 0,0 l/m 0,0 km/h (0 Bft) SW 225 0 min -8,3 C -6,5 C 0,0 km/h (0 Bft)
02.02.2017 03:50 -6,7 C 0,9 C -5,2 C -6,6 C -6,6 C 0,1 C 88 % 87 % 0 % 1016,8 hPa 0,0 l/m 0,0 km/h (0 Bft) SW 225 0 min -8,3 C -6,6 C 0,0 km/h (0 Bft)
02.02.2017 03:55 -6,8 C 0,9 C -5,3 C -6,7 C -6,7 C 0,1 C 88 % 87 % 0 % 1016,8 hPa 0,0 l/m 0,0 km/h (0 Bft) SW 225 0 min -8,4 C -6,7 C 0,0 km/h (0 Bft)
02.02.2017 04:00 -6,7 C 0,9 C -5,3 C -6,7 C -6,8 C 0,0 C 88 % 87 % 0 % 1017,3 hPa 0,0 l/m 0,0 km/h (0 Bft) SW 225 0 min -8,3 C -6,8 C 0,0 km/h (0 Bft)
02.02.2017 04:05 -6,9 C 0,8 C -5,3 C -6,9 C -7,0 C 0,0 C 87 % 88 % 0 % 1017,3 hPa 0,0 l/m 0,0 km/h (0 Bft) SW 225 0 min -8,7 C -7,0 C 0,0 km/h (0 Bft)
02.02.2017 04:10 -6,9 C 0,8 C -5,3 C -6,9 C -7,0 C 0,0 C 87 % 88 % 0 % 1017,3 hPa 0,0 l/m 0,0 km/h (0 Bft) SW 225 0 min -8,7 C -7,0 C 0,0 km/h (0 Bft)
02.02.2017 04:15 -6,9 C 0,8 C -5,6 C -6,8 C -6,8 C 0,1 C 87 % 88 % 0 % 1017,3 hPa 0,0 l/m 0,0 km/h (0 Bft) SW 225 0 min -8,7 C -6,8 C 0,0 km/h (0 Bft)
02.02.2017 04:20 -6,9 C 0,8 C -5,6 C -6,8 C -6,8 C 0,1 C 87 % 88 % 0 % 1017,0 hPa 0,0 l/m 0,0 km/h (0 Bft) SW 225 0 min -8,7 C -6,8 C 0,0 km/h (0 Bft)
02.02.2017 04:25 -6,9 C 0,8 C -5,5 C -6,9 C -6,9 C 0,0 C 87 % 88 % 0 % 1017,0 hPa 0,0 l/m 0,0 km/h (0 Bft) SW 225 0 min -8,7 C -6,9 C 0,0 km/h (0 Bft)
02.02.2017 04:30 -7,1 C 0,8 C -5,6 C -7,0 C -7,0 C 0,1 C 87 % 88 % 0 % 1017,0 hPa 0,0 l/m 0,0 km/h (0 Bft) SW 225 0 min -8,9 C -7,0 C 0,0 km/h (0 Bft)
02.02.2017 04:35 -6,9 C 0,8 C -5,6 C -6,7 C -6,7 C 0,2 C 87 % 88 % 0 % 1017,0 hPa 0,0 l/m 0,0 km/h (0 Bft) O-NO 67 0 min -8,7 C -6,7 C 0,0 km/h (0 Bft)
02.02.2017 04:40 -6,9 C 0,8 C -5,6 C -6,5 C -6,5 C 0,4 C 87 % 88 % 0 % 1017,1 hPa 0,0 l/m 0,0 km/h (0 Bft) O-NO 67 0 min -8,7 C -6,5 C 0,0 km/h (0 Bft)
02.02.2017 04:45 -6,9 C 0,8 C -5,5 C -6,4 C -6,4 C 0,5 C 87 % 88 % 0 % 1017,1 hPa 0,0 l/m 0,0 km/h (0 Bft) O-NO 67 0 min -8,7 C -6,4 C 0,0 km/h (0 Bft)
02.02.2017 04:50 -6,7 C 0,8 C -5,7 C -6,3 C -6,3 C 0,4 C 88 % 88 % 0 % 1017,1 hPa 0,0 l/m 0,0 km/h (0 Bft) O-NO 67 0 min -8,3 C -6,3 C 0,0 km/h (0 Bft)
02.02.2017 04:55 -6,9 C 0,8 C -5,6 C -6,3 C -6,3 C 0,6 C 87 % 88 % 0 % 1017,1 hPa 0,0 l/m 0,0 km/h (0 Bft) O-NO 67 0 min -8,7 C -6,3 C 0,0 km/h (0 Bft)
02.02.2017 05:00 -6,9 C 0,9 C -5,6 C -6,4 C -6,4 C 0,5 C 87 % 88 % 0 % 1016,5 hPa 0,0 l/m 0,0 km/h (0 Bft) O-NO 67 0 min -8,7 C -6,4 C 0,0 km/h (0 Bft)
02.02.2017 05:05 -6,9 C 0,8 C -5,3 C -6,5 C -6,5 C 0,4 C 87 % 88 % 0 % 1016,5 hPa 0,0 l/m 0,0 km/h (0 Bft) O-NO 67 0 min -8,7 C -6,5 C 0,0 km/h (0 Bft)
02.02.2017 05:10 -6,9 C 0,8 C -5,3 C -6,7 C -6,7 C 0,2 C 87 % 88 % 0 % 1016,5 hPa 0,0 l/m 0,0 km/h (0 Bft) O-NO 67 0 min -8,7 C -6,7 C 0,0 km/h (0 Bft)
02.02.2017 05:15 -6,9 C 0,8 C -5,3 C -6,6 C -6,6 C 0,3 C 87 % 88 % 0 % 1016,5 hPa 0,0 l/m 0,0 km/h (0 Bft) O-NO 67 0 min -8,7 C -6,6 C 0,0 km/h (0 Bft)
02.02.2017 05:20 -6,9 C 0,9 C -5,3 C -6,5 C -6,5 C 0,4 C 87 % 88 % 0 % 1016,4 hPa 0,0 l/m 0,0 km/h (0 Bft) O-NO 67 0 min -8,7 C -6,5 C 0,0 km/h (0 Bft)
02.02.2017 05:25 -6,9 C 0,8 C -5,3 C -6,5 C -6,5 C 0,4 C 87 % 88 % 0 % 1016,4 hPa 0,0 l/m 0,0 km/h (0 Bft) O-NO 67 0 min -8,7 C -6,5 C 0,0 km/h (0 Bft)
02.02.2017 05:30 -6,9 C 0,8 C -5,3 C -6,5 C -6,5 C 0,4 C 87 % 88 % 0 % 1016,4 hPa 0,0 l/m 0,0 km/h (0 Bft) O-NO 67 0 min -8,7 C -6,5 C 0,0 km/h (0 Bft)
02.02.2017 05:35 -6,9 C 0,8 C -5,4 C -6,3 C -6,3 C 0,6 C 87 % 88 % 0 % 1016,4 hPa 0,0 l/m 0,0 km/h (0 Bft) O-NO 67 0 min -8,7 C -6,3 C 0,0 km/h (0 Bft)
02.02.2017 05:40 -7,0 C 0,8 C -5,3 C -6,3 C -6,3 C 0,7 C 87 % 88 % 0 % 1016,3 hPa 0,0 l/m 0,0 km/h (0 Bft) O-NO 67 0 min -8,8 C -6,3 C 0,0 km/h (0 Bft)
02.02.2017 05:45 -6,8 C 0,9 C -5,2 C -6,0 C -6,0 C 0,8 C 88 % 87 % 0 % 1016,3 hPa 0,0 l/m 0,5 km/h (0 Bft) NW 315 0 min -8,4 C -6,0 C 0,0 km/h (0 Bft)
02.02.2017 05:50 -6,7 C 0,9 C -4,9 C -5,7 C -5,7 C 1,0 C 88 % 87 % 0 % 1016,3 hPa 0,0 l/m 0,5 km/h (0 Bft) N-NW 337 0 min -8,3 C -5,7 C 0,0 km/h (0 Bft)
02.02.2017 05:55 -6,5 C 0,9 C -4,8 C -5,4 C -5,4 C 1,1 C 88 % 87 % 0 % 1016,3 hPa 0,0 l/m 0,0 km/h (0 Bft) W-NW 292 0 min -8,1 C -5,4 C 0,0 km/h (0 Bft)
02.02.2017 06:00 -6,4 C 0,9 C -4,5 C -5,1 C -5,1 C 1,3 C 88 % 86 % 0 % 1016,6 hPa 0,0 l/m 0,0 km/h (0 Bft) NW 315 0 min -8,1 C -5,1 C 0,0 km/h (0 Bft)
02.02.2017 06:05 -6,1 C 0,9 C -4,4 C -4,7 C -4,7 C 1,4 C 88 % 85 % 0 % 1016,6 hPa 0,0 l/m 0,0 km/h (0 Bft) W 270 0 min -7,8 C -4,7 C 0,0 km/h (0 Bft)
02.02.2017 06:10 -6,1 C 0,9 C -4,1 C -4,5 C -4,5 C 1,6 C 88 % 85 % 0 % 1016,6 hPa 0,0 l/m 0,0 km/h (0 Bft) W 270 0 min -7,8 C -4,5 C 0,0 km/h (0 Bft)
02.02.2017 06:15 -6,0 C 0,9 C -3,9 C -4,2 C -4,2 C 1,8 C 88 % 84 % 0 % 1016,6 hPa 0,0 l/m 0,0 km/h (0 Bft) W-SW 247 0 min -7,7 C -4,2 C 0,0 km/h (0 Bft)
02.02.2017 06:20 -5,9 C 0,9 C -3,7 C -4,1 C -4,1 C 1,8 C 88 % 84 % 0 % 1016,0 hPa 0,0 l/m 0,0 km/h (0 Bft) W-NW 292 0 min -7,6 C -4,1 C 0,0 km/h (0 Bft)
02.02.2017 06:25 -5,7 C 0,9 C -3,6 C -3,9 C -3,9 C 1,8 C 88 % 84 % 0 % 1016,0 hPa 0,0 l/m 0,0 km/h (0 Bft) N-NW 337 0 min -7,4 C -3,9 C 0,0 km/h (0 Bft)
02.02.2017 06:30 -5,7 C 0,9 C -3,5 C -3,7 C -3,7 C 2,0 C 88 % 83 % 0 % 1016,0 hPa 0,0 l/m 0,0 km/h (0 Bft) N-NW 337 0 min -7,4 C -3,7 C 0,0 km/h (0 Bft)
02.02.2017 06:35 -5,5 C 0,9 C -3,3 C -3,6 C -3,6 C 1,9 C 88 % 83 % 0 % 1016,0 hPa 0,0 l/m 0,0 km/h (0 Bft) N-NW 337 0 min -7,2 C -3,6 C 0,0 km/h (0 Bft)
02.02.2017 06:40 -5,3 C 0,9 C -3,2 C -3,5 C -3,5 C 1,8 C 89 % 83 % 0 % 1016,6 hPa 0,0 l/m 0,0 km/h (0 Bft) N-NW 337 0 min -6,8 C -3,5 C 0,0 km/h (0 Bft)
02.02.2017 06:45 -5,3 C 0,9 C -3,1 C -3,4 C -3,4 C 1,9 C 89 % 82 % 0 % 1016,6 hPa 0,0 l/m 0,0 km/h (0 Bft) N-NW 337 0 min -6,8 C -3,4 C 0,0 km/h (0 Bft)
02.02.2017 06:50 -5,3 C 1,0 C -2,9 C -3,3 C -3,3 C 2,0 C 89 % 82 % 0 % 1016,6 hPa 0,0 l/m 0,0 km/h (0 Bft) N-NW 337 0 min -6,8 C -3,3 C 0,0 km/h (0 Bft)
02.02.2017 06:55 -5,1 C 0,9 C -2,9 C -3,2 C -3,2 C 1,9 C 89 % 82 % 0 % 1016,6 hPa 0,0 l/m 0,0 km/h (0 Bft) N-NW 337 0 min -6,6 C -3,2 C 0,0 km/h (0 Bft)
02.02.2017 07:00 -5,1 C 1,0 C -2,9 C -3,1 C -3,1 C 2,0 C 89 % 82 % 0 % 1016,6 hPa 0,0 l/m 0,0 km/h (0 Bft) N-NW 337 0 min -6,6 C -3,1 C 0,0 km/h (0 Bft)
02.02.2017 07:05 -4,9 C 1,0 C -2,8 C -3,0 C -3,0 C 1,9 C 89 % 82 % 0 % 1016,6 hPa 0,0 l/m 0,0 km/h (0 Bft) N-NW 337 0 min -6,4 C -3,0 C 0,0 km/h (0 Bft)
02.02.2017 07:10 -4,9 C 1,0 C -2,8 C -3,0 C -3,0 C 1,9 C 89 % 82 % 0 % 1016,6 hPa 0,0 l/m 0,0 km/h (0 Bft) N-NW 337 0 min -6,4 C -3,0 C 0,0 km/h (0 Bft)
02.02.2017 07:15 -4,8 C 1,0 C -2,7 C -3,0 C -3,0 C 1,8 C 89 % 82 % 0 % 1016,6 hPa 0,0 l/m 0,0 km/h (0 Bft) N-NW 337 0 min -6,3 C -3,0 C 0,0 km/h (0 Bft)
02.02.2017 07:20 -4,7 C 1,0 C -2,5 C -3,0 C -3,0 C 1,7 C 89 % 81 % 0 % 1016,6 hPa 0,0 l/m 0,0 km/h (0 Bft) N-NW 337 0 min -6,2 C -3,0 C 0,0 km/h (0 Bft)
02.02.2017 07:25 -4,5 C 1,0 C -2,5 C -2,9 C -2,9 C 1,6 C 89 % 81 % 0 % 1016,6 hPa 0,0 l/m 0,0 km/h (0 Bft) NW 315 0 min -6,0 C -2,9 C 0,0 km/h (0 Bft)
02.02.2017 07:30 -4,5 C 1,0 C -2,3 C -2,8 C -2,8 C 1,7 C 89 % 81 % 0 % 1016,6 hPa 0,0 l/m 0,0 km/h (0 Bft) NW 315 0 min -6,0 C -2,8 C 0,0 km/h (0 Bft)
02.02.2017 07:35 -4,3 C 1,0 C -2,3 C -2,6 C -2,6 C 1,7 C 89 % 80 % 0 % 1016,6 hPa 0,0 l/m 0,0 km/h (0 Bft) NW 315 0 min -5,8 C -2,6 C 0,0 km/h (0 Bft)
02.02.2017 07:40 -4,1 C 1,0 C -2,2 C -2,5 C -2,5 C 1,6 C 89 % 80 % 0 % 1015,8 hPa 0,0 l/m 0,0 km/h (0 Bft) NW 315 0 min -5,6 C -2,5 C 0,0 km/h (0 Bft)
02.02.2017 07:45 -4,1 C 1,0 C -2,1 C -2,4 C -2,4 C 1,7 C 89 % 80 % 0 % 1015,8 hPa 0,0 l/m 0,0 km/h (0 Bft) NW 315 0 min -5,6 C -2,4 C 0,0 km/h (0 Bft)
02.02.2017 07:50 -3,9 C 1,0 C -2,0 C -2,3 C -2,3 C 1,6 C 89 % 80 % 0 % 1015,8 hPa 0,0 l/m 0,0 km/h (0 Bft) NW 315 0 min -5,4 C -2,3 C 0,0 km/h (0 Bft)
02.02.2017 07:55 -3,9 C 1,0 C -1,9 C -2,3 C -2,3 C 1,6 C 89 % 79 % 0 % 1015,8 hPa 0,0 l/m 0,0 km/h (0 Bft) NW 315 0 min -5,4 C -2,3 C 0,0 km/h (0 Bft)
02.02.2017 08:00 -3,9 C 1,0 C -1,7 C -2,2 C -2,2 C 1,7 C 89 % 79 % 45 % 1015,6 hPa 0,0 l/m 0,0 km/h (0 Bft) NW 315 5 min -5,4 C -2,2 C 0,0 km/h (0 Bft)
02.02.2017 08:05 -3,7 C 1,0 C -1,7 C -2,2 C -2,2 C 1,5 C 89 % 79 % 39 % 1015,6 hPa 0,0 l/m 0,0 km/h (0 Bft) NW 315 5 min -5,2 C -2,2 C 0,0 km/h (0 Bft)
02.02.2017 08:10 -3,7 C 1,0 C -1,7 C -2,1 C -2,1 C 1,6 C 89 % 78 % 42 % 1015,6 hPa 0,0 l/m 0,0 km/h (0 Bft) W-NW 292 5 min -5,2 C -2,1 C 0,0 km/h (0 Bft)
02.02.2017 08:15 -3,7 C 1,0 C -1,7 C -2,0 C -2,0 C 1,7 C 89 % 78 % 45 % 1015,6 hPa 0,0 l/m 0,0 km/h (0 Bft) W-NW 292 5 min -5,2 C -2,0 C 0,0 km/h (0 Bft)
02.02.2017 08:20 -3,6 C 1,0 C -1,5 C -1,9 C -1,9 C 1,7 C 89 % 78 % 45 % 1015,4 hPa 0,0 l/m 0,0 km/h (0 Bft) W-NW 292 5 min -5,1 C -1,9 C 0,0 km/h (0 Bft)
02.02.2017 08:25 -3,5 C 1,0 C -1,5 C -1,7 C -1,7 C 1,8 C 89 % 78 % 47 % 1015,4 hPa 0,0 l/m 0,0 km/h (0 Bft) W-NW 292 5 min -5,0 C -1,7 C 0,0 km/h (0 Bft)
02.02.2017 08:30 -3,3 C 1,0 C -1,3 C -1,6 C -1,6 C 1,7 C 89 % 78 % 45 % 1015,4 hPa 0,0 l/m 0,0 km/h (0 Bft) NW 315 5 min -4,8 C -1,6 C 0,0 km/h (0 Bft)
02.02.2017 08:35 -3,3 C 1,1 C -1,3 C -1,5 C -1,5 C 1,8 C 89 % 77 % 47 % 1015,4 hPa 0,0 l/m 0,0 km/h (0 Bft) NW 315 5 min -4,8 C -1,5 C 0,0 km/h (0 Bft)
02.02.2017 08:40 -3,2 C 1,1 C -1,2 C -1,4 C -1,4 C 1,8 C 89 % 77 % 47 % 1015,4 hPa 0,0 l/m 0,0 km/h (0 Bft) NW 315 5 min -4,7 C -1,4 C 0,0 km/h (0 Bft)
02.02.2017 08:45 -3,1 C 1,1 C -1,1 C -1,2 C -1,2 C 1,9 C 89 % 77 % 50 % 1015,4 hPa 0,0 l/m 0,0 km/h (0 Bft) NW 315 5 min -4,6 C -1,2 C 0,0 km/h (0 Bft)
02.02.2017 08:50 -2,9 C 1,1 C -0,9 C -1,1 C -1,1 C 1,8 C 89 % 77 % 47 % 1015,4 hPa 0,0 l/m 0,0 km/h (0 Bft) NW 315 5 min -4,5 C -1,1 C 0,0 km/h (0 Bft)
02.02.2017 08:55 -2,9 C 1,1 C -0,9 C -0,8 C -0,8 C 2,1 C 89 % 77 % 55 % 1015,4 hPa 0,0 l/m 0,0 km/h (0 Bft) NW 315 5 min -4,5 C -0,8 C 0,0 km/h (0 Bft)
02.02.2017 09:00 -2,7 C 1,2 C -0,8 C -0,8 C -0,8 C 1,9 C 89 % 76 % 50 % 1015,5 hPa 0,0 l/m 0,0 km/h (0 Bft) NW 315 5 min -4,3 C -0,8 C 0,0 km/h (0 Bft)
02.02.2017 09:05 -2,5 C 1,1 C -0,6 C -0,5 C -0,5 C 2,0 C 89 % 76 % 53 % 1015,5 hPa 0,0 l/m 0,0 km/h (0 Bft) NW 315 5 min -4,1 C -0,5 C 0,0 km/h (0 Bft)
02.02.2017 09:10 -2,3 C 1,1 C -0,3 C -0,3 C -0,3 C 2,0 C 90 % 76 % 53 % 1015,5 hPa 0,0 l/m 0,0 km/h (0 Bft) W 270 5 min -3,7 C -0,3 C 0,0 km/h (0 Bft)
02.02.2017 09:15 -2,2 C 1,1 C -0,3 C -0,2 C -0,2 C 2,0 C 90 % 76 % 53 % 1015,5 hPa 0,0 l/m 0,0 km/h (0 Bft) W 270 0 min -3,6 C -0,2 C 0,0 km/h (0 Bft)
02.02.2017 09:20 -2,1 C 1,1 C -0,2 C -0,2 C -0,2 C 1,9 C 90 % 76 % 50 % 1015,4 hPa 0,0 l/m 0,0 km/h (0 Bft) N-NO 22 0 min -3,5 C -0,2 C 0,0 km/h (0 Bft)
02.02.2017 09:25 -1,9 C 1,0 C -0,1 C 0,0 C 0,0 C 1,9 C 90 % 76 % 50 % 1015,4 hPa 0,0 l/m 0,0 km/h (0 Bft) S 180 0 min -3,3 C 0,0 C 0,0 km/h (0 Bft)
02.02.2017 09:30 -1,9 C 1,0 C -0,1 C 0,0 C 0,0 C 1,9 C 90 % 76 % 50 % 1015,4 hPa 0,0 l/m 0,0 km/h (0 Bft) S-SW 202 0 min -3,3 C 0,0 C 0,0 km/h (0 Bft)
02.02.2017 09:35 -1,7 C 1,1 C 0,0 C 0,1 C 0,1 C 1,8 C 90 % 76 % 47 % 1015,4 hPa 0,0 l/m 0,0 km/h (0 Bft) SW 225 0 min -3,1 C 0,1 C 0,0 km/h (0 Bft)
02.02.2017 09:40 -1,7 C 1,1 C 0,1 C 0,1 C 0,1 C 1,8 C 90 % 76 % 47 % 1015,2 hPa 0,0 l/m 0,0 km/h (0 Bft) W-NW 292 0 min -3,1 C 0,1 C 0,0 km/h (0 Bft)
02.02.2017 09:45 -1,5 C 1,2 C 0,3 C 0,1 C 0,1 C 1,6 C 90 % 76 % 42 % 1015,2 hPa 0,0 l/m 0,0 km/h (0 Bft) W 270 0 min -2,9 C 0,1 C 0,0 km/h (0 Bft)
02.02.2017 09:50 -1,5 C 1,1 C 0,2 C 0,1 C 0,1 C 1,6 C 90 % 76 % 42 % 1015,2 hPa 0,0 l/m 0,0 km/h (0 Bft) W 270 0 min -2,9 C 0,1 C 0,0 km/h (0 Bft)
02.02.2017 09:55 -1,3 C 1,2 C 0,3 C 0,2 C 0,2 C 1,5 C 90 % 76 % 39 % 1015,2 hPa 0,0 l/m 0,0 km/h (0 Bft) W-SW 247 0 min -2,7 C 0,2 C 0,0 km/h (0 Bft)
02.02.2017 10:00 -1,3 C 1,1 C 0,3 C 0,3 C 0,3 C 1,6 C 90 % 76 % 42 % 1014,9 hPa 0,0 l/m 0,0 km/h (0 Bft) W-SW 247 0 min -2,7 C 0,3 C 0,0 km/h (0 Bft)
02.02.2017 10:05 -1,1 C 1,1 C 0,4 C 0,6 C 0,6 C 1,7 C 90 % 76 % 45 % 1014,9 hPa 0,0 l/m 0,0 km/h (0 Bft) W-SW 247 0 min -2,5 C 0,6 C 0,0 km/h (0 Bft)
02.02.2017 10:10 -1,1 C 1,1 C 0,5 C 0,8 C 0,8 C 1,9 C 90 % 76 % 50 % 1014,9 hPa 0,0 l/m 0,0 km/h (0 Bft) W-SW 247 0 min -2,5 C 0,8 C 0,0 km/h (0 Bft)
02.02.2017 10:15 -0,9 C 1,1 C 0,7 C 1,0 C 1,0 C 1,9 C 90 % 76 % 50 % 1014,9 hPa 0,0 l/m 0,0 km/h (0 Bft) W-SW 247 0 min -2,3 C 1,0 C 0,0 km/h (0 Bft)
02.02.2017 10:20 -0,9 C 1,1 C 0,6 C 1,2 C 1,2 C 2,1 C 90 % 76 % 55 % 1014,9 hPa 0,0 l/m 0,0 km/h (0 Bft) W-SW 247 0 min -2,3 C 1,2 C 0,0 km/h (0 Bft)
02.02.2017 10:25 -0,5 C 1,1 C 0,8 C 1,6 C 1,6 C 2,1 C 90 % 76 % 55 % 1014,9 hPa 0,0 l/m 0,0 km/h (0 Bft) W-SW 247 0 min -1,9 C 1,6 C 0,0 km/h (0 Bft)
02.02.2017 10:30 -0,5 C 1,1 C 0,9 C 1,8 C 1,8 C 2,3 C 90 % 76 % 61 % 1014,9 hPa 0,0 l/m 0,0 km/h (0 Bft) W-SW 247 0 min -1,9 C 1,8 C 0,0 km/h (0 Bft)
02.02.2017 10:35 -0,4 C 1,2 C 1,1 C 2,2 C 2,2 C 2,6 C 91 % 76 % 68 % 1014,9 hPa 0,0 l/m 0,0 km/h (0 Bft) W-SW 247 0 min -1,7 C 2,2 C 0,0 km/h (0 Bft)
02.02.2017 10:40 -0,3 C 1,0 C 1,1 C 2,4 C 2,4 C 2,7 C 91 % 76 % 71 % 1015,1 hPa 0,0 l/m 0,0 km/h (0 Bft) W-SW 247 0 min -1,6 C 2,4 C 0,0 km/h (0 Bft)
02.02.2017 10:45 -0,3 C 1,2 C 1,1 C 2,4 C 2,4 C 2,7 C 91 % 76 % 71 % 1015,1 hPa 0,0 l/m 0,0 km/h (0 Bft) W 270 0 min -1,6 C 2,4 C 0,0 km/h (0 Bft)
02.02.2017 10:50 -0,1 C 1,0 C 1,1 C 2,4 C 2,4 C 2,5 C 90 % 76 % 66 % 1015,1 hPa 0,0 l/m 0,0 km/h (0 Bft) W 270 0 min -1,5 C 2,4 C 0,0 km/h (0 Bft)
02.02.2017 10:55 -0,1 C 1,0 C 1,1 C 2,3 C 2,3 C 2,4 C 90 % 76 % 63 % 1015,1 hPa 0,0 l/m 0,0 km/h (0 Bft) W 270 0 min -1,5 C 2,3 C 0,0 km/h (0 Bft)
02.02.2017 11:00 -0,2 C 1,0 C 1,2 C 2,3 C 2,3 C 2,5 C 90 % 76 % 66 % 1015,1 hPa 0,0 l/m 0,0 km/h (0 Bft) W 270 0 min -1,6 C 2,3 C 0,0 km/h (0 Bft)
02.02.2017 11:05 -0,3 C 1,2 C 1,3 C 2,1 C 2,1 C 2,4 C 90 % 76 % 63 % 1015,1 hPa 0,0 l/m 0,0 km/h (0 Bft) O-NO 67 0 min -1,7 C 2,1 C 0,0 km/h (0 Bft)
02.02.2017 11:10 -0,2 C 1,0 C 1,2 C 2,3 C 2,3 C 2,5 C 90 % 76 % 66 % 1015,1 hPa 0,0 l/m 0,0 km/h (0 Bft) O-NO 67 0 min -1,6 C 2,3 C 0,0 km/h (0 Bft)
02.02.2017 11:15 -0,1 C 1,0 C 1,3 C 2,4 C 2,4 C 2,5 C 90 % 76 % 66 % 1015,1 hPa 0,0 l/m 0,0 km/h (0 Bft) SW 225 0 min -1,5 C 2,4 C 0,0 km/h (0 Bft)
02.02.2017 11:20 -0,1 C 1,0 C 1,2 C 2,4 C 2,4 C 2,5 C 90 % 75 % 66 % 1015,1 hPa 0,0 l/m 0,0 km/h (0 Bft) W-SW 247 0 min -1,5 C 2,4 C 0,0 km/h (0 Bft)
02.02.2017 11:25 -0,1 C 1,0 C 1,3 C 2,2 C 2,2 C 2,3 C 90 % 75 % 61 % 1015,1 hPa 0,0 l/m 0,0 km/h (0 Bft) W-SW 247 0 min -1,5 C 2,2 C 0,0 km/h (0 Bft)
02.02.2017 11:30 -0,1 C 1,2 C 1,2 C 2,1 C 2,1 C 2,2 C 90 % 75 % 58 % 1015,1 hPa 0,0 l/m 0,0 km/h (0 Bft) W-SW 247 0 min -1,5 C 2,1 C 0,0 km/h (0 Bft)
02.02.2017 11:35 -0,1 C 1,2 C 1,2 C 2,1 C 2,1 C 2,2 C 90 % 75 % 58 % 1015,1 hPa 0,0 l/m 0,0 km/h (0 Bft) NW 315 0 min -1,5 C 2,1 C 0,0 km/h (0 Bft)
02.02.2017 11:40 -0,1 C 1,0 C 1,3 C 2,1 C 2,1 C 2,2 C 90 % 75 % 58 % 1014,6 hPa 0,0 l/m 0,0 km/h (0 Bft) W 270 0 min -1,5 C 2,1 C 0,0 km/h (0 Bft)
02.02.2017 11:45 -0,1 C 1,2 C 1,2 C 2,1 C 2,1 C 2,2 C 90 % 75 % 58 % 1014,6 hPa 0,0 l/m 0,0 km/h (0 Bft) W 270 0 min -1,5 C 2,1 C 0,0 km/h (0 Bft)
02.02.2017 11:50 -0,1 C 1,2 C 1,3 C 2,2 C 2,2 C 2,3 C 89 % 75 % 61 % 1014,6 hPa 0,0 l/m 0,0 km/h (0 Bft) W 270 0 min -1,7 C 2,2 C 0,0 km/h (0 Bft)
02.02.2017 11:55 0,0 C 1,2 C 1,4 C 2,5 C 2,5 C 2,5 C 90 % 75 % 66 % 1014,6 hPa 0,0 l/m 0,0 km/h (0 Bft) W 270 0 min -1,4 C 2,5 C 0,0 km/h (0 Bft)
02.02.2017 12:00 0,3 C 1,2 C 1,6 C 2,7 C 2,7 C 2,4 C 90 % 76 % 63 % 1014,8 hPa 0,0 l/m 0,0 km/h (0 Bft) W 270 0 min -1,1 C 2,7 C 0,0 km/h (0 Bft)
02.02.2017 12:05 0,5 C 1,0 C 1,8 C 3,4 C 3,4 C 2,9 C 90 % 76 % 76 % 1014,8 hPa 0,0 l/m 0,0 km/h (0 Bft) W 270 0 min -0,9 C 3,4 C 0,0 km/h (0 Bft)
02.02.2017 12:10 0,7 C 1,2 C 2,0 C 3,7 C 3,7 C 3,0 C 90 % 76 % 79 % 1014,8 hPa 0,0 l/m 0,0 km/h (0 Bft) W 270 0 min -0,7 C 3,7 C 0,0 km/h (0 Bft)
02.02.2017 12:15 0,7 C 1,2 C 2,2 C 4,1 C 4,1 C 3,4 C 90 % 76 % 89 % 1014,8 hPa 0,0 l/m 0,0 km/h (0 Bft) W 270 5 min -0,7 C 4,1 C 0,0 km/h (0 Bft)
02.02.2017 12:20 1,0 C 1,0 C 2,3 C 4,5 C 4,5 C 3,5 C 90 % 75 % 92 % 1014,5 hPa 0,0 l/m 0,0 km/h (0 Bft) W-SW 247 5 min -0,5 C 4,5 C 0,0 km/h (0 Bft)
02.02.2017 12:25 1,1 C 1,0 C 2,4 C 5,0 C 5,0 C 3,9 C 90 % 75 % 100 % 1014,5 hPa 0,0 l/m 0,0 km/h (0 Bft) W-SW 247 5 min -0,4 C 5,0 C 0,0 km/h (0 Bft)
02.02.2017 12:30 1,1 C 1,2 C 2,4 C 5,0 C 5,0 C 3,9 C 90 % 75 % 100 % 1014,5 hPa 0,0 l/m 0,0 km/h (0 Bft) W-SW 247 5 min -0,4 C 5,0 C 0,0 km/h (0 Bft)
02.02.2017 12:35 1,0 C 1,0 C 2,3 C 4,7 C 4,7 C 3,7 C 90 % 75 % 97 % 1014,5 hPa 0,0 l/m 0,0 km/h (0 Bft) W-SW 247 5 min -0,5 C 4,7 C 0,0 km/h (0 Bft)
02.02.2017 12:40 1,1 C 1,1 C 2,2 C 4,2 C 4,2 C 3,1 C 90 % 75 % 82 % 1014,4 hPa 0,0 l/m 0,0 km/h (0 Bft) W-SW 247 0 min -0,4 C 4,2 C 0,0 km/h (0 Bft)
02.02.2017 12:45 1,0 C 1,3 C 2,3 C 3,8 C 3,8 C 2,8 C 90 % 75 % 74 % 1014,4 hPa 0,0 l/m 0,0 km/h (0 Bft) W-SW 247 0 min -0,5 C 3,8 C 0,0 km/h (0 Bft)
02.02.2017 12:50 1,2 C 1,3 C 2,3 C 3,7 C 3,7 C 2,5 C 90 % 75 % 66 % 1014,4 hPa 0,0 l/m 0,0 km/h (0 Bft) W-SW 247 0 min -0,3 C 3,7 C 0,0 km/h (0 Bft)
02.02.2017 12:55 1,2 C 1,3 C 2,4 C 3,7 C 3,7 C 2,5 C 89 % 75 % 66 % 1014,4 hPa 0,0 l/m 0,0 km/h (0 Bft) W 270 0 min -0,4 C 3,7 C 0,0 km/h (0 Bft)
02.02.2017 13:00 1,2 C 1,3 C 2,5 C 3,9 C 3,9 C 2,7 C 89 % 75 % 71 % 1014,0 hPa 0,0 l/m 0,0 km/h (0 Bft) W 270 0 min -0,4 C 3,9 C 0,0 km/h (0 Bft)
02.02.2017 13:05 1,5 C 1,3 C 2,6 C 4,2 C 4,2 C 2,7 C 90 % 75 % 71 % 1014,0 hPa 0,0 l/m 0,0 km/h (0 Bft) W-SW 247 0 min 0,0 C 4,2 C 0,0 km/h (0 Bft)
02.02.2017 13:10 1,7 C 1,3 C 2,6 C 4,5 C 4,5 C 2,8 C 90 % 75 % 74 % 1014,0 hPa 0,0 l/m 0,0 km/h (0 Bft) W-SW 247 0 min 0,2 C 4,5 C 0,0 km/h (0 Bft)
02.02.2017 13:15 1,9 C 1,3 C 2,8 C 4,6 C 4,6 C 2,7 C 90 % 75 % 71 % 1014,0 hPa 0,0 l/m 0,0 km/h (0 Bft) W-SW 247 0 min 0,4 C 4,6 C 0,0 km/h (0 Bft)
02.02.2017 13:20 2,0 C 1,3 C 2,8 C 4,7 C 4,7 C 2,7 C 90 % 75 % 71 % 1013,8 hPa 0,0 l/m 0,0 km/h (0 Bft) W-SW 247 0 min 0,5 C 4,7 C 0,0 km/h (0 Bft)
02.02.2017 13:25 2,3 C 1,4 C 2,9 C 4,8 C 4,8 C 2,5 C 90 % 75 % 66 % 1013,8 hPa 0,0 l/m 0,0 km/h (0 Bft) W-SW 247 0 min 0,8 C 4,8 C 0,0 km/h (0 Bft)
02.02.2017 13:30 2,4 C 1,3 C 3,0 C 5,0 C 5,0 C 2,6 C 90 % 75 % 68 % 1013,8 hPa 0,0 l/m 0,0 km/h (0 Bft) W-SW 247 0 min 0,9 C 5,0 C 0,0 km/h (0 Bft)
02.02.2017 13:35 2,3 C 1,3 C 2,8 C 4,8 C 4,8 C 2,5 C 89 % 75 % 66 % 1013,8 hPa 0,0 l/m 0,0 km/h (0 Bft) W-SW 247 0 min 0,7 C 4,8 C 0,0 km/h (0 Bft)
02.02.2017 13:40 2,3 C 1,4 C 2,7 C 4,7 C 4,7 C 2,4 C 89 % 75 % 63 % 1013,3 hPa 0,0 l/m 0,0 km/h (0 Bft) W-SW 247 0 min 0,7 C 4,7 C 0,0 km/h (0 Bft)
02.02.2017 13:45 2,2 C 1,3 C 2,7 C 4,4 C 4,4 C 2,2 C 89 % 75 % 58 % 1013,3 hPa 0,0 l/m 0,0 km/h (0 Bft) W-SW 247 0 min 0,6 C 4,4 C 1,6 km/h (1 Bft)
02.02.2017 13:50 2,0 C 1,4 C 2,5 C 4,1 C 4,1 C 2,1 C 88 % 75 % 55 % 1013,3 hPa 0,0 l/m 0,2 km/h (0 Bft) W-SW 247 0 min 0,2 C 4,1 C 0,0 km/h (0 Bft)
02.02.2017 13:55 2,0 C 1,4 C 2,7 C 4,1 C 4,1 C 2,1 C 88 % 75 % 55 % 1013,3 hPa 0,0 l/m 0,2 km/h (0 Bft) W-SW 247 0 min 0,2 C 4,1 C 0,0 km/h (0 Bft)
02.02.2017 14:00 2,0 C 1,4 C 2,7 C 4,3 C 4,3 C 2,3 C 88 % 75 % 61 % 1013,9 hPa 0,0 l/m 0,0 km/h (0 Bft) W 270 0 min 0,2 C 4,3 C 0,0 km/h (0 Bft)
02.02.2017 14:05 2,1 C 1,4 C 2,7 C 4,4 C 4,4 C 2,3 C 88 % 75 % 61 % 1013,9 hPa 0,0 l/m 0,0 km/h (0 Bft) W 270 0 min 0,3 C 4,4 C 0,0 km/h (0 Bft)
02.02.2017 14:10 2,0 C 1,4 C 2,7 C 4,4 C 4,4 C 2,4 C 88 % 75 % 63 % 1013,9 hPa 0,0 l/m 0,0 km/h (0 Bft) W-SW 247 0 min 0,2 C 4,4 C 0,0 km/h (0 Bft)
02.02.2017 14:15 1,9 C 1,4 C 2,7 C 4,3 C 4,3 C 2,4 C 88 % 75 % 63 % 1013,9 hPa 0,0 l/m 0,0 km/h (0 Bft) W-SW 247 0 min 0,1 C 4,3 C 0,0 km/h (0 Bft)
02.02.2017 14:20 1,9 C 1,4 C 2,6 C 4,2 C 4,2 C 2,3 C 88 % 75 % 61 % 1013,2 hPa 0,0 l/m 0,0 km/h (0 Bft) W-SW 247 0 min 0,1 C 4,2 C 0,0 km/h (0 Bft)
02.02.2017 14:25 1,9 C 1,4 C 2,5 C 4,1 C 4,1 C 2,2 C 88 % 75 % 58 % 1013,2 hPa 0,0 l/m 0,0 km/h (0 Bft) W-SW 247 0 min 0,1 C 4,1 C 0,0 km/h (0 Bft)
02.02.2017 14:30 1,9 C 1,4 C 2,5 C 4,0 C 4,0 C 2,1 C 88 % 75 % 55 % 1013,2 hPa 0,0 l/m 0,0 km/h (0 Bft) NO 45 0 min 0,1 C 4,0 C 0,0 km/h (0 Bft)
02.02.2017 14:35 1,9 C 1,4 C 2,5 C 3,8 C 3,8 C 1,9 C 88 % 75 % 50 % 1013,2 hPa 0,0 l/m 0,0 km/h (0 Bft) NO 45 0 min 0,1 C 3,8 C 0,0 km/h (0 Bft)
02.02.2017 14:40 1,8 C 1,4 C 2,5 C 3,7 C 3,7 C 1,9 C 88 % 75 % 50 % 1012,9 hPa 0,0 l/m 0,0 km/h (0 Bft) NO 45 0 min 0,0 C 3,7 C 0,0 km/h (0 Bft)
02.02.2017 14:45 1,7 C 1,4 C 2,3 C 3,6 C 3,6 C 1,9 C 88 % 75 % 50 % 1012,9 hPa 0,0 l/m 0,0 km/h (0 Bft) NO 45 0 min -0,1 C 3,6 C 0,0 km/h (0 Bft)
02.02.2017 14:50 1,7 C 1,4 C 2,5 C 3,6 C 3,6 C 1,9 C 88 % 75 % 50 % 1012,9 hPa 0,0 l/m 0,0 km/h (0 Bft) NO 45 0 min -0,1 C 3,6 C 0,0 km/h (0 Bft)
02.02.2017 14:55 1,9 C 1,4 C 2,4 C 3,8 C 3,8 C 1,9 C 88 % 75 % 50 % 1012,9 hPa 0,0 l/m 0,0 km/h (0 Bft) S 180 0 min 0,1 C 3,8 C 0,0 km/h (0 Bft)
02.02.2017 15:00 1,9 C 1,4 C 2,4 C 3,9 C 3,9 C 2,0 C 88 % 75 % 53 % 1012,9 hPa 0,0 l/m 0,0 km/h (0 Bft) W-SW 247 0 min 0,1 C 3,9 C 0,0 km/h (0 Bft)
02.02.2017 15:05 1,9 C 1,4 C 2,5 C 3,9 C 3,9 C 2,0 C 88 % 75 % 53 % 1012,9 hPa 0,0 l/m 0,0 km/h (0 Bft) W-SW 247 0 min 0,1 C 3,9 C 0,0 km/h (0 Bft)
02.02.2017 15:10 1,7 C 1,4 C 2,4 C 3,8 C 3,8 C 2,1 C 88 % 75 % 55 % 1012,9 hPa 0,0 l/m 0,0 km/h (0 Bft) SW 225 0 min -0,1 C 3,8 C 0,0 km/h (0 Bft)
02.02.2017 15:15 1,6 C 1,4 C 2,4 C 3,6 C 3,6 C 2,0 C 88 % 75 % 53 % 1012,9 hPa 0,0 l/m 0,0 km/h (0 Bft) SW 225 0 min -0,2 C 3,6 C 0,0 km/h (0 Bft)
02.02.2017 15:20 1,7 C 1,4 C 2,3 C 3,6 C 3,6 C 1,9 C 88 % 75 % 50 % 1012,8 hPa 0,0 l/m 0,0 km/h (0 Bft) W 270 0 min -0,1 C 3,6 C 0,0 km/h (0 Bft)
02.02.2017 15:25 1,6 C 1,4 C 2,3 C 3,5 C 3,5 C 1,9 C 88 % 76 % 50 % 1012,8 hPa 0,0 l/m 0,0 km/h (0 Bft) W 270 0 min -0,2 C 3,5 C 0,0 km/h (0 Bft)
02.02.2017 15:30 1,7 C 1,4 C 2,3 C 3,5 C 3,5 C 1,8 C 88 % 75 % 47 % 1012,8 hPa 0,0 l/m 0,0 km/h (0 Bft) W 270 0 min -0,1 C 3,5 C 0,0 km/h (0 Bft)
02.02.2017 15:35 1,6 C 1,4 C 2,4 C 3,8 C 3,8 C 2,2 C 88 % 75 % 58 % 1012,8 hPa 0,0 l/m 0,0 km/h (0 Bft) W 270 5 min -0,2 C 3,8 C 0,0 km/h (0 Bft)
02.02.2017 15:40 1,8 C 1,4 C 2,5 C 4,1 C 4,1 C 2,3 C 88 % 75 % 61 % 1012,8 hPa 0,0 l/m 0,0 km/h (0 Bft) W 270 5 min 0,0 C 4,1 C 0,0 km/h (0 Bft)
02.02.2017 15:45 1,9 C 1,4 C 2,5 C 4,2 C 4,2 C 2,3 C 88 % 75 % 61 % 1012,8 hPa 0,0 l/m 0,0 km/h (0 Bft) NW 315 5 min 0,1 C 4,2 C 0,0 km/h (0 Bft)
02.02.2017 15:50 2,0 C 1,3 C 2,4 C 4,2 C 4,2 C 2,2 C 88 % 75 % 58 % 1012,8 hPa 0,0 l/m 0,0 km/h (0 Bft) NW 315 5 min 0,2 C 4,2 C 0,0 km/h (0 Bft)
02.02.2017 15:55 2,0 C 1,3 C 2,3 C 4,1 C 4,1 C 2,1 C 88 % 75 % 55 % 1012,8 hPa 0,0 l/m 0,0 km/h (0 Bft) SW 225 5 min 0,2 C 4,1 C 0,0 km/h (0 Bft)
02.02.2017 16:00 1,9 C 1,3 C 2,3 C 3,9 C 3,9 C 2,0 C 88 % 75 % 53 % 1012,6 hPa 0,0 l/m 0,0 km/h (0 Bft) SW 225 5 min 0,1 C 3,9 C 0,0 km/h (0 Bft)
02.02.2017 16:05 1,7 C 1,4 C 2,4 C 3,7 C 3,7 C 2,0 C 88 % 75 % 53 % 1012,6 hPa 0,0 l/m 0,0 km/h (0 Bft) SW 225 5 min -0,1 C 3,7 C 0,0 km/h (0 Bft)
02.02.2017 16:10 1,7 C 1,4 C 2,4 C 3,6 C 3,6 C 1,9 C 88 % 75 % 50 % 1012,6 hPa 0,0 l/m 0,0 km/h (0 Bft) N-NW 337 5 min -0,1 C 3,6 C 0,0 km/h (0 Bft)
02.02.2017 16:15 1,7 C 1,4 C 2,3 C 3,6 C 3,6 C 1,9 C 88 % 75 % 50 % 1012,6 hPa 0,0 l/m 0,0 km/h (0 Bft) O-NO 67 5 min -0,1 C 3,6 C 0,0 km/h (0 Bft)
02.02.2017 16:20 1,7 C 1,4 C 2,3 C 3,5 C 3,5 C 1,8 C 88 % 75 % 47 % 1012,8 hPa 0,0 l/m 0,0 km/h (0 Bft) O-NO 67 5 min -0,1 C 3,5 C 0,0 km/h (0 Bft)
02.02.2017 16:25 1,6 C 1,4 C 2,1 C 3,2 C 3,2 C 1,6 C 88 % 75 % 42 % 1012,8 hPa 0,0 l/m 0,0 km/h (0 Bft) O-NO 67 5 min -0,2 C 3,2 C 0,0 km/h (0 Bft)
02.02.2017 16:30 1,6 C 1,4 C 2,0 C 3,0 C 3,0 C 1,4 C 88 % 76 % 37 % 1012,8 hPa 0,0 l/m 0,0 km/h (0 Bft) O-NO 67 5 min -0,2 C 3,0 C 0,0 km/h (0 Bft)
02.02.2017 16:35 1,5 C 1,4 C 1,9 C 2,6 C 2,6 C 1,1 C 87 % 76 % 29 % 1012,8 hPa 0,0 l/m 0,0 km/h (0 Bft) O-NO 67 5 min -0,4 C 2,6 C 0,0 km/h (0 Bft)
02.02.2017 16:40 1,5 C 1,4 C 1,7 C 2,5 C 2,5 C 1,0 C 87 % 76 % 26 % 1012,6 hPa 0,0 l/m 0,0 km/h (0 Bft) O-NO 67 5 min -0,4 C 2,5 C 0,0 km/h (0 Bft)
02.02.2017 16:45 1,3 C 1,4 C 1,6 C 2,3 C 2,3 C 1,0 C 87 % 76 % 26 % 1012,6 hPa 0,0 l/m 0,0 km/h (0 Bft) O-NO 67 5 min -0,6 C 2,3 C 0,0 km/h (0 Bft)
02.02.2017 16:50 1,2 C 1,4 C 1,5 C 2,1 C 2,1 C 0,9 C 87 % 76 % 24 % 1012,6 hPa 0,0 l/m 0,0 km/h (0 Bft) O-NO 67 5 min -0,7 C 2,1 C 0,0 km/h (0 Bft)
02.02.2017 16:55 1,0 C 1,4 C 1,3 C 1,8 C 1,8 C 0,8 C 87 % 76 % 0 % 1012,6 hPa 0,0 l/m 0,0 km/h (0 Bft) O-NO 67 0 min -0,9 C 1,8 C 0,0 km/h (0 Bft)
02.02.2017 17:00 1,0 C 1,4 C 1,2 C 1,8 C 1,8 C 0,8 C 87 % 76 % 0 % 1012,6 hPa 0,0 l/m 0,0 km/h (0 Bft) O-NO 67 0 min -0,9 C 1,8 C 0,0 km/h (0 Bft)
02.02.2017 17:05 0,9 C 1,4 C 1,2 C 1,7 C 1,7 C 0,8 C 87 % 76 % 0 % 1012,6 hPa 0,0 l/m 0,0 km/h (0 Bft) O-NO 67 0 min -1,0 C 1,7 C 0,0 km/h (0 Bft)
02.02.2017 17:10 0,8 C 1,4 C 1,2 C 1,7 C 1,7 C 0,9 C 87 % 76 % 0 % 1012,6 hPa 0,0 l/m 0,0 km/h (0 Bft) O-NO 67 0 min -1,1 C 1,7 C 0,0 km/h (0 Bft)
02.02.2017 17:15 0,7 C 1,4 C 1,1 C 1,8 C 1,8 C 1,1 C 87 % 76 % 0 % 1012,6 hPa 0,0 l/m 0,0 km/h (0 Bft) O-NO 67 0 min -1,2 C 1,8 C 0,0 km/h (0 Bft)
02.02.2017 17:20 0,7 C 1,4 C 1,1 C 1,8 C 1,8 C 1,1 C 87 % 76 % 0 % 1012,8 hPa 0,0 l/m 0,0 km/h (0 Bft) O-NO 67 0 min -1,2 C 1,8 C 0,0 km/h (0 Bft)
02.02.2017 17:25 0,7 C 1,4 C 0,8 C 1,6 C 1,6 C 0,9 C 87 % 76 % 0 % 1012,8 hPa 0,0 l/m 0,0 km/h (0 Bft) W-SW 247 0 min -1,2 C 1,6 C 0,0 km/h (0 Bft)
02.02.2017 17:30 0,5 C 1,4 C 0,7 C 1,3 C 1,3 C 0,8 C 87 % 76 % 0 % 1012,8 hPa 0,0 l/m 0,0 km/h (0 Bft) W-SW 247 0 min -1,4 C 1,3 C 0,0 km/h (0 Bft)
02.02.2017 17:35 0,4 C 1,4 C 0,6 C 1,0 C 1,0 C 0,6 C 87 % 76 % 0 % 1012,8 hPa 0,0 l/m 0,0 km/h (0 Bft) W-SW 247 0 min -1,5 C 1,0 C 0,0 km/h (0 Bft)
02.02.2017 17:40 0,3 C 1,4 C 0,5 C 0,6 C 0,6 C 0,3 C 87 % 76 % 0 % 1012,8 hPa 0,0 l/m 0,0 km/h (0 Bft) W-SW 247 0 min -1,6 C 0,6 C 0,0 km/h (0 Bft)
02.02.2017 17:45 0,3 C 1,4 C 0,4 C 0,4 C 0,4 C 0,1 C 87 % 76 % 0 % 1012,8 hPa 0,0 l/m 0,0 km/h (0 Bft) W-SW 247 0 min -1,6 C 0,4 C 0,0 km/h (0 Bft)
02.02.2017 17:50 0,1 C 1,4 C 0,5 C 0,3 C 0,3 C 0,2 C 87 % 76 % 0 % 1012,8 hPa 0,0 l/m 0,0 km/h (0 Bft) W-SW 247 0 min -1,8 C 0,3 C 0,0 km/h (0 Bft)
02.02.2017 17:55 0,1 C 1,3 C 0,4 C 0,2 C 0,2 C 0,1 C 87 % 76 % 0 % 1012,8 hPa 0,0 l/m 0,0 km/h (0 Bft) W-SW 247 0 min -1,8 C 0,2 C 0,0 km/h (0 Bft)
02.02.2017 18:00 -0,1 C 1,3 C 0,3 C 0,2 C 0,2 C 0,3 C 87 % 76 % 0 % 1013,0 hPa 0,0 l/m 0,0 km/h (0 Bft) W-SW 247 0 min -2,0 C 0,2 C 0,0 km/h (0 Bft)
02.02.2017 18:05 -0,1 C 1,3 C 0,3 C 0,1 C 0,1 C 0,2 C 87 % 76 % 0 % 1013,0 hPa 0,0 l/m 0,0 km/h (0 Bft) O-NO 67 0 min -2,0 C 0,1 C 0,0 km/h (0 Bft)
02.02.2017 18:10 -0,3 C 1,3 C 0,3 C 0,1 C 0,1 C 0,4 C 87 % 76 % 0 % 1013,0 hPa 0,0 l/m 0,0 km/h (0 Bft) O-NO 67 0 min -2,2 C 0,1 C 0,0 km/h (0 Bft)
02.02.2017 18:15 -0,3 C 1,3 C 0,0 C 0,1 C 0,1 C 0,4 C 87 % 76 % 0 % 1013,0 hPa 0,0 l/m 0,0 km/h (0 Bft) O-NO 67 0 min -2,2 C 0,1 C 0,0 km/h (0 Bft)
02.02.2017 18:20 -0,5 C 1,3 C 0,1 C 0,1 C 0,1 C 0,6 C 87 % 76 % 0 % 1012,4 hPa 0,0 l/m 0,0 km/h (0 Bft) O-NO 67 0 min -2,4 C 0,1 C 0,0 km/h (0 Bft)
02.02.2017 18:25 -0,5 C 1,3 C -0,1 C 0,0 C 0,0 C 0,5 C 87 % 76 % 0 % 1012,4 hPa 0,0 l/m 0,0 km/h (0 Bft) O-NO 67 0 min -2,4 C 0,0 C 0,0 km/h (0 Bft)
02.02.2017 18:30 -0,5 C 1,3 C -0,1 C -0,2 C -0,2 C 0,3 C 87 % 76 % 0 % 1012,4 hPa 0,0 l/m 0,0 km/h (0 Bft) O-NO 67 0 min -2,4 C -0,2 C 0,0 km/h (0 Bft)
02.02.2017 18:35 -0,7 C 1,3 C -0,2 C -0,5 C -0,5 C 0,2 C 87 % 76 % 0 % 1012,4 hPa 0,0 l/m 0,3 km/h (0 Bft) W-SW 247 0 min -2,6 C -0,5 C 0,0 km/h (0 Bft)
02.02.2017 18:40 -0,9 C 1,3 C -0,1 C -0,7 C -0,7 C 0,2 C 87 % 76 % 0 % 1012,4 hPa 0,0 l/m 0,3 km/h (0 Bft) W-SW 247 0 min -2,8 C -0,7 C 0,0 km/h (0 Bft)
02.02.2017 18:45 -0,9 C 1,3 C -0,3 C -0,8 C -0,8 C 0,1 C 87 % 76 % 0 % 1012,4 hPa 0,0 l/m 0,0 km/h (0 Bft) W-SW 247 0 min -2,8 C -0,8 C 0,0 km/h (0 Bft)
02.02.2017 18:50 -1,1 C 1,3 C -0,4 C -0,9 C -0,9 C 0,2 C 87 % 76 % 0 % 1012,4 hPa 0,0 l/m 0,0 km/h (0 Bft) W-SW 247 0 min -3,0 C -0,9 C 0,0 km/h (0 Bft)
02.02.2017 18:55 -1,1 C 1,3 C -0,5 C -1,0 C -1,0 C 0,1 C 87 % 76 % 0 % 1012,4 hPa 0,0 l/m 0,0 km/h (0 Bft) W-SW 247 0 min -3,0 C -1,0 C 0,0 km/h (0 Bft)
02.02.2017 19:00 -1,3 C 1,3 C -0,5 C -1,1 C -1,1 C 0,2 C 87 % 76 % 0 % 1012,4 hPa 0,0 l/m 0,0 km/h (0 Bft) W-SW 247 0 min -3,2 C -1,1 C 0,0 km/h (0 Bft)
02.02.2017 19:05 -1,3 C 1,3 C -0,5 C -1,2 C -1,2 C 0,1 C 87 % 76 % 0 % 1012,4 hPa 0,0 l/m 0,0 km/h (0 Bft) W-SW 247 0 min -3,2 C -1,2 C 0,0 km/h (0 Bft)
02.02.2017 19:10 -1,3 C 1,3 C -0,5 C -1,2 C -1,2 C 0,1 C 87 % 76 % 0 % 1012,4 hPa 0,0 l/m 0,0 km/h (0 Bft) W-SW 247 0 min -3,2 C -1,2 C 0,0 km/h (0 Bft)
02.02.2017 19:15 -1,5 C 1,3 C -0,5 C -1,4 C -1,4 C 0,1 C 87 % 77 % 0 % 1012,4 hPa 0,0 l/m 0,0 km/h (0 Bft) W-SW 247 0 min -3,4 C -1,4 C 0,0 km/h (0 Bft)
02.02.2017 19:20 -1,5 C 1,3 C -0,3 C -1,4 C -1,4 C 0,1 C 87 % 77 % 0 % 1012,2 hPa 0,0 l/m 0,2 km/h (0 Bft) W 270 0 min -3,4 C -1,4 C 0,0 km/h (0 Bft)
02.02.2017 19:25 -1,6 C 1,3 C -0,5 C -1,3 C -1,3 C 0,3 C 87 % 77 % 0 % 1012,2 hPa 0,0 l/m 0,3 km/h (0 Bft) O-NO 67 0 min -3,5 C -1,3 C 0,0 km/h (0 Bft)
02.02.2017 19:30 -1,5 C 1,3 C -0,5 C -1,3 C -1,3 C 0,2 C 88 % 77 % 0 % 1012,2 hPa 0,0 l/m 0,3 km/h (0 Bft) O-NO 67 0 min -3,2 C -1,3 C 0,0 km/h (0 Bft)
02.02.2017 19:35 -1,7 C 1,3 C -0,5 C -1,2 C -1,2 C 0,5 C 88 % 77 % 0 % 1012,2 hPa 0,0 l/m 0,2 km/h (0 Bft) O-SO 112 0 min -3,4 C -1,2 C 0,0 km/h (0 Bft)
02.02.2017 19:40 -1,7 C 1,3 C -0,5 C -1,1 C -1,1 C 0,6 C 88 % 78 % 0 % 1012,2 hPa 0,0 l/m 0,0 km/h (0 Bft) O-SO 112 0 min -3,4 C -1,1 C 0,0 km/h (0 Bft)
02.02.2017 19:45 -1,7 C 1,3 C -0,5 C -0,8 C -0,8 C 0,9 C 88 % 77 % 0 % 1012,2 hPa 0,0 l/m 0,0 km/h (0 Bft) O-SO 112 0 min -3,4 C -0,8 C 0,0 km/h (0 Bft)
02.02.2017 19:50 -1,7 C 1,3 C -0,5 C -0,6 C -0,6 C 1,1 C 88 % 78 % 0 % 1012,2 hPa 0,0 l/m 0,0 km/h (0 Bft) O-SO 112 0 min -3,4 C -0,6 C 0,0 km/h (0 Bft)
02.02.2017 19:55 -1,7 C 1,3 C -0,5 C -0,6 C -0,6 C 1,1 C 88 % 78 % 0 % 1012,2 hPa 0,0 l/m 0,0 km/h (0 Bft) O-SO 112 0 min -3,4 C -0,6 C 0,0 km/h (0 Bft)
02.02.2017 20:00 -1,7 C 1,3 C -0,5 C -0,6 C -0,6 C 1,1 C 88 % 78 % 0 % 1012,1 hPa 0,0 l/m 0,0 km/h (0 Bft) O-SO 112 0 min -3,4 C -0,6 C 0,0 km/h (0 Bft)
02.02.2017 20:05 -1,6 C 1,3 C -0,3 C -0,6 C -0,6 C 1,0 C 88 % 77 % 0 % 1012,1 hPa 0,0 l/m 0,0 km/h (0 Bft) O-SO 112 0 min -3,3 C -0,6 C 0,0 km/h (0 Bft)
02.02.2017 20:10 -1,5 C 1,3 C -0,5 C -0,6 C -0,6 C 0,9 C 88 % 78 % 0 % 1012,1 hPa 0,0 l/m 0,0 km/h (0 Bft) O-SO 112 0 min -3,2 C -0,6 C 0,0 km/h (0 Bft)
02.02.2017 20:15 -1,6 C 1,3 C -0,5 C -0,7 C -0,7 C 0,9 C 88 % 78 % 0 % 1012,1 hPa 0,0 l/m 0,0 km/h (0 Bft) O-SO 112 0 min -3,3 C -0,7 C 0,0 km/h (0 Bft)
02.02.2017 20:20 -1,6 C 1,3 C -0,5 C -0,7 C -0,7 C 0,9 C 88 % 78 % 0 % 1012,0 hPa 0,0 l/m 0,0 km/h (0 Bft) O-SO 112 0 min -3,3 C -0,7 C 0,0 km/h (0 Bft)
02.02.2017 20:25 -1,6 C 1,3 C -0,5 C -0,6 C -0,6 C 1,0 C 88 % 78 % 0 % 1012,0 hPa 0,0 l/m 0,0 km/h (0 Bft) O-SO 112 0 min -3,3 C -0,6 C 0,0 km/h (0 Bft)
02.02.2017 20:30 -1,5 C 1,3 C -0,4 C -0,5 C -0,5 C 1,0 C 88 % 77 % 0 % 1012,0 hPa 0,0 l/m 0,0 km/h (0 Bft) O-SO 112 0 min -3,2 C -0,5 C 0,0 km/h (0 Bft)
02.02.2017 20:35 -1,5 C 1,3 C -0,3 C -0,3 C -0,3 C 1,2 C 88 % 77 % 0 % 1012,0 hPa 0,0 l/m 0,0 km/h (0 Bft) O-SO 112 0 min -3,2 C -0,3 C 0,0 km/h (0 Bft)
02.02.2017 20:40 -1,3 C 1,3 C -0,3 C -0,2 C -0,2 C 1,1 C 88 % 77 % 0 % 1012,1 hPa 0,0 l/m 0,0 km/h (0 Bft) O-SO 112 0 min -3,0 C -0,2 C 0,0 km/h (0 Bft)
02.02.2017 20:45 -1,3 C 1,3 C -0,1 C -0,2 C -0,2 C 1,1 C 88 % 77 % 0 % 1012,1 hPa 0,0 l/m 0,0 km/h (0 Bft) O-SO 112 0 min -3,0 C -0,2 C 0,0 km/h (0 Bft)
02.02.2017 20:50 -1,3 C 1,3 C -0,1 C -0,2 C -0,2 C 1,1 C 88 % 77 % 0 % 1012,1 hPa 0,0 l/m 0,0 km/h (0 Bft) O-SO 112 0 min -3,0 C -0,2 C 0,0 km/h (0 Bft)
02.02.2017 20:55 -1,3 C 1,3 C -0,2 C -0,2 C -0,2 C 1,1 C 88 % 77 % 0 % 1012,1 hPa 0,0 l/m 0,0 km/h (0 Bft) N-NW 337 0 min -3,0 C -0,2 C 0,0 km/h (0 Bft)
02.02.2017 21:00 -1,3 C 1,3 C -0,1 C -0,2 C -0,2 C 1,1 C 88 % 77 % 0 % 1011,7 hPa 0,0 l/m 0,0 km/h (0 Bft) N-NW 337 0 min -3,0 C -0,2 C 0,0 km/h (0 Bft)
02.02.2017 21:05 -1,3 C 1,3 C -0,1 C 0,0 C 0,0 C 1,3 C 88 % 77 % 0 % 1011,7 hPa 0,0 l/m 0,0 km/h (0 Bft) N-NW 337 0 min -3,0 C 0,0 C 0,0 km/h (0 Bft)
02.02.2017 21:10 -1,3 C 1,3 C -0,1 C 0,0 C 0,0 C 1,3 C 88 % 77 % 0 % 1011,7 hPa 0,0 l/m 0,0 km/h (0 Bft) N-NW 337 0 min -3,0 C 0,0 C 0,0 km/h (0 Bft)
02.02.2017 21:15 -1,2 C 1,3 C -0,1 C 0,1 C 0,1 C 1,3 C 88 % 77 % 0 % 1011,7 hPa 0,0 l/m 0,0 km/h (0 Bft) N-NW 337 0 min -2,9 C 0,1 C 0,0 km/h (0 Bft)
02.02.2017 21:20 -1,2 C 1,3 C -0,1 C 0,1 C 0,1 C 1,3 C 88 % 77 % 0 % 1011,2 hPa 0,0 l/m 0,0 km/h (0 Bft) N-NW 337 0 min -2,9 C 0,1 C 0,0 km/h (0 Bft)
02.02.2017 21:25 -1,2 C 1,3 C -0,1 C 0,0 C 0,0 C 1,2 C 88 % 77 % 0 % 1011,2 hPa 0,0 l/m 0,0 km/h (0 Bft) N-NW 337 0 min -2,9 C 0,0 C 0,0 km/h (0 Bft)
02.02.2017 21:30 -1,2 C 1,3 C -0,1 C 0,0 C 0,0 C 1,2 C 88 % 77 % 0 % 1011,2 hPa 0,0 l/m 0,0 km/h (0 Bft) O 90 0 min -2,9 C 0,0 C 0,0 km/h (0 Bft)
02.02.2017 21:35 -1,2 C 1,3 C -0,1 C -0,2 C -0,2 C 1,0 C 88 % 77 % 0 % 1011,2 hPa 0,0 l/m 0,0 km/h (0 Bft) O 90 0 min -2,9 C -0,2 C 0,0 km/h (0 Bft)
02.02.2017 21:40 -1,2 C 1,3 C -0,1 C -0,2 C -0,2 C 1,0 C 88 % 77 % 0 % 1011,3 hPa 0,0 l/m 0,0 km/h (0 Bft) O 90 0 min -2,9 C -0,2 C 0,0 km/h (0 Bft)
02.02.2017 21:45 -1,2 C 1,3 C -0,1 C 0,0 C 0,0 C 1,2 C 88 % 77 % 0 % 1011,3 hPa 0,0 l/m 0,0 km/h (0 Bft) O 90 0 min -2,9 C 0,0 C 0,0 km/h (0 Bft)
02.02.2017 21:50 -1,2 C 1,3 C -0,1 C 0,0 C 0,0 C 1,2 C 88 % 77 % 0 % 1011,3 hPa 0,0 l/m 0,0 km/h (0 Bft) O 90 0 min -2,9 C 0,0 C 0,0 km/h (0 Bft)
02.02.2017 21:55 -1,2 C 1,3 C -0,1 C 0,1 C 0,1 C 1,3 C 88 % 77 % 0 % 1011,3 hPa 0,0 l/m 0,0 km/h (0 Bft) O 90 0 min -2,9 C 0,1 C 0,0 km/h (0 Bft)
02.02.2017 22:00 -1,1 C 1,3 C -0,1 C 0,1 C 0,1 C 1,2 C 88 % 77 % 0 % 1011,3 hPa 0,0 l/m 0,0 km/h (0 Bft) O 90 0 min -2,8 C 0,1 C 0,0 km/h (0 Bft)
02.02.2017 22:05 -1,1 C 1,3 C -0,1 C 0,1 C 0,1 C 1,2 C 88 % 77 % 0 % 1011,3 hPa 0,0 l/m 0,0 km/h (0 Bft) O-NO 67 0 min -2,8 C 0,1 C 0,0 km/h (0 Bft)
02.02.2017 22:10 -1,1 C 1,3 C -0,1 C 0,1 C 0,1 C 1,2 C 88 % 77 % 0 % 1011,3 hPa 0,0 l/m 0,0 km/h (0 Bft) O-NO 67 0 min -2,8 C 0,1 C 0,0 km/h (0 Bft)
02.02.2017 22:15 -1,1 C 1,3 C -0,1 C 0,2 C 0,2 C 1,3 C 88 % 77 % 0 % 1011,3 hPa 0,0 l/m 0,0 km/h (0 Bft) O-NO 67 0 min -2,8 C 0,2 C 0,0 km/h (0 Bft)
02.02.2017 22:20 -0,9 C 1,3 C 0,1 C 0,3 C 0,3 C 1,2 C 88 % 77 % 0 % 1011,2 hPa 0,0 l/m 0,0 km/h (0 Bft) O-NO 67 0 min -2,6 C 0,3 C 0,0 km/h (0 Bft)
02.02.2017 22:25 -0,9 C 1,3 C 0,0 C 0,3 C 0,3 C 1,2 C 88 % 77 % 0 % 1011,2 hPa 0,0 l/m 0,0 km/h (0 Bft) S-SW 202 0 min -2,6 C 0,3 C 1,6 km/h (1 Bft)
02.02.2017 22:30 -0,9 C 1,3 C 0,1 C 0,3 C 0,3 C 1,2 C 88 % 77 % 0 % 1011,2 hPa 0,0 l/m 0,0 km/h (0 Bft) SW 225 0 min -2,6 C 0,3 C 0,0 km/h (0 Bft)
02.02.2017 22:35 -1,0 C 1,3 C 0,0 C 0,3 C 0,3 C 1,3 C 88 % 77 % 0 % 1011,2 hPa 0,0 l/m 0,0 km/h (0 Bft) SW 225 0 min -2,7 C 0,3 C 0,0 km/h (0 Bft)
02.02.2017 22:40 -1,0 C 1,3 C 0,0 C 0,3 C 0,3 C 1,3 C 88 % 77 % 0 % 1011,3 hPa 0,0 l/m 0,0 km/h (0 Bft) SW 225 0 min -2,7 C 0,3 C 0,0 km/h (0 Bft)
02.02.2017 22:45 -0,9 C 1,3 C 0,1 C 0,4 C 0,4 C 1,3 C 88 % 77 % 0 % 1011,3 hPa 0,0 l/m 0,0 km/h (0 Bft) SW 225 0 min -2,6 C 0,4 C 0,0 km/h (0 Bft)
02.02.2017 22:50 -1,0 C 1,3 C 0,1 C 0,5 C 0,5 C 1,5 C 88 % 77 % 0 % 1011,3 hPa 0,0 l/m 0,0 km/h (0 Bft) SW 225 0 min -2,7 C 0,5 C 0,0 km/h (0 Bft)
02.02.2017 22:55 -0,9 C 1,3 C 0,1 C 0,5 C 0,5 C 1,4 C 89 % 77 % 0 % 1011,3 hPa 0,0 l/m 0,0 km/h (0 Bft) SW 225 0 min -2,5 C 0,5 C 0,0 km/h (0 Bft)
02.02.2017 23:00 -0,9 C 1,3 C 0,1 C 0,6 C 0,6 C 1,5 C 88 % 77 % 0 % 1011,0 hPa 0,0 l/m 0,0 km/h (0 Bft) SW 225 0 min -2,6 C 0,6 C 0,0 km/h (0 Bft)
02.02.2017 23:05 -0,9 C 1,3 C 0,2 C 0,8 C 0,8 C 1,7 C 89 % 76 % 0 % 1011,0 hPa 0,0 l/m 0,0 km/h (0 Bft) SW 225 0 min -2,5 C 0,8 C 0,0 km/h (0 Bft)
02.02.2017 23:10 -0,9 C 1,3 C 0,2 C 0,9 C 0,9 C 1,8 C 89 % 76 % 0 % 1011,0 hPa 0,0 l/m 0,0 km/h (0 Bft) SW 225 0 min -2,5 C 0,9 C 0,0 km/h (0 Bft)
02.02.2017 23:15 -0,9 C 1,3 C 0,3 C 0,9 C 0,9 C 1,8 C 89 % 76 % 0 % 1011,0 hPa 0,0 l/m 0,0 km/h (0 Bft) SW 225 0 min -2,5 C 0,9 C 0,0 km/h (0 Bft)
02.02.2017 23:20 -0,8 C 1,3 C 0,3 C 0,8 C 0,8 C 1,6 C 89 % 76 % 0 % 1011,4 hPa 0,0 l/m 0,0 km/h (0 Bft) SW 225 0 min -2,4 C 0,8 C 0,0 km/h (0 Bft)
02.02.2017 23:25 -0,8 C 1,3 C 0,2 C 0,7 C 0,7 C 1,5 C 89 % 76 % 0 % 1011,4 hPa 0,0 l/m 0,0 km/h (0 Bft) SW 225 0 min -2,4 C 0,7 C 0,0 km/h (0 Bft)
02.02.2017 23:30 -0,8 C 1,3 C 0,2 C 0,7 C 0,7 C 1,5 C 89 % 76 % 0 % 1011,4 hPa 0,0 l/m 0,0 km/h (0 Bft) SW 225 0 min -2,4 C 0,7 C 0,0 km/h (0 Bft)
02.02.2017 23:35 -0,7 C 1,3 C 0,2 C 0,7 C 0,7 C 1,4 C 89 % 76 % 0 % 1011,4 hPa 0,0 l/m 0,0 km/h (0 Bft) SW 225 0 min -2,3 C 0,7 C 0,0 km/h (0 Bft)
02.02.2017 23:40 -0,8 C 1,3 C 0,3 C 0,7 C 0,7 C 1,5 C 89 % 76 % 0 % 1011,4 hPa 0,0 l/m 0,0 km/h (0 Bft) SW 225 0 min -2,4 C 0,7 C 0,0 km/h (0 Bft)
02.02.2017 23:45 -0,8 C 1,3 C 0,3 C 0,7 C 0,7 C 1,5 C 89 % 76 % 0 % 1011,4 hPa 0,0 l/m 0,0 km/h (0 Bft) SW 225 0 min -2,4 C 0,7 C 0,0 km/h (0 Bft)
02.02.2017 23:50 -0,8 C 1,3 C 0,3 C 0,7 C 0,7 C 1,5 C 89 % 76 % 0 % 1011,4 hPa 0,0 l/m 0,0 km/h (0 Bft) SW 225 0 min -2,4 C 0,7 C 0,0 km/h (0 Bft)
02.02.2017 23:55 -0,8 C 1,3 C 0,3 C 0,7 C 0,7 C 1,5 C 89 % 76 % 0 % 1011,4 hPa 0,0 l/m 0,0 km/h (0 Bft) SW 225 0 min -2,4 C 0,7 C 0,0 km/h (0 Bft)
_ Min-Zeit 04:30 03:30 04:50 04:30 04:05 00:00 00:00 11:20 00:00 23:00 - 00:00 - - - 04:30 04:05 00:00
Minimum _ -7,1 C 0,8 C -5,7 C -7,0 C -7,0 C 0,0 C 87 % 75 % 0 % 1011,0 hPa - 0,0 km/h (0 Bft) - - - -8,9 C -7,0 C 0,0 km/h (0 Bft)
_ Max-Zeit 13:30 13:25 13:30 12:25 12:25 12:25 10:35 04:05 12:25 00:20 00:00 01:15 - - 08:00 13:30 12:25 02:05
Maximum _ 2,4 C 1,4 C 3,0 C 5,0 C 5,0 C 3,9 C 91 % 88 % 100 % 1019,6 hPa 0,0 l/m 1,3 km/h
O-NO (1 Bft)
- - 5 min 0,9 C 5,0 C 3,2 km/h
N-NO (1 Bft)
Durchschnitt _ -2,2 C 1,1 C -1,0 C -0,9 C -0,9 C 1,3 C 88 % 79 % 21 % 1014,6 hPa #0,0 l/m 0,0 km/h (0 Bft) N-NO - #3:00 h -3,8 C -0,9 C 0,0 km/h (0 Bft)
2017 www.wetterstation-wechselburg.de